createdAt,value
2019-05-09T05:12:51.506Z,1.77
2019-05-09T05:15:20.533Z,2.70
2019-05-09T05:17:49.178Z,2.00
2019-05-09T05:20:19.642Z,2.40
2019-05-09T05:22:52.050Z,2.53
2019-05-09T05:25:21.354Z,2.63
2019-05-09T05:27:50.089Z,1.93
2019-05-09T05:30:18.909Z,1.87
2019-05-09T05:32:54.276Z,2.43
2019-05-09T05:35:28.486Z,1.30
2019-05-09T05:37:58.117Z,2.80
2019-05-09T05:40:31.940Z,1.60
2019-05-09T05:42:54.901Z,2.20
2019-05-09T05:45:23.940Z,2.63
2019-05-09T05:48:28.254Z,1.67
2019-05-09T05:50:57.812Z,3.20
2019-05-09T05:53:27.608Z,2.10
2019-05-09T05:55:54.441Z,1.43
2019-05-09T05:58:23.278Z,1.90
2019-05-09T06:00:52.022Z,2.43
2019-05-09T06:03:20.310Z,2.50
2019-05-09T06:05:51.652Z,2.83
2019-05-09T06:08:17.622Z,2.90
2019-05-09T06:10:48.245Z,2.47
2019-05-09T06:13:15.197Z,2.07
2019-05-09T06:15:43.964Z,2.40
2019-05-09T06:18:13.147Z,2.80
2019-05-09T06:20:45.315Z,2.50
2019-05-09T06:23:11.095Z,2.10
2019-05-09T06:25:40.100Z,2.60
2019-05-09T06:28:08.667Z,2.47
2019-05-09T06:30:40.866Z,2.53
2019-05-09T06:33:08.750Z,3.33
2019-05-09T06:35:37.746Z,2.73
2019-05-09T06:38:03.912Z,2.63
2019-05-09T06:40:32.661Z,3.10
2019-05-09T06:43:07.942Z,2.40
2019-05-09T06:45:41.709Z,2.17
2019-05-09T06:48:09.224Z,2.80
2019-05-09T06:50:37.970Z,2.43
2019-05-09T06:53:08.008Z,2.23
2019-05-09T06:55:35.245Z,2.43
2019-05-09T06:58:09.011Z,2.50
2019-05-09T07:00:41.517Z,3.00
2019-05-09T07:03:13.833Z,2.60
2019-05-09T07:06:48.101Z,2.30
2019-05-09T07:09:18.850Z,2.33
2019-05-09T07:11:48.624Z,3.17
2019-05-09T07:14:28.618Z,2.23
2019-05-09T07:16:50.159Z,3.10
2019-05-09T07:19:18.645Z,2.80
2019-05-09T07:21:53.022Z,1.93
2019-05-09T07:24:21.771Z,2.00
2019-05-09T07:26:50.516Z,1.57
2019-05-09T07:29:18.780Z,1.80
2019-05-09T07:31:51.734Z,2.10
2019-05-09T07:34:24.530Z,1.87
2019-05-09T07:36:53.331Z,2.07
2019-05-09T07:39:22.063Z,2.13
2019-05-09T07:41:50.915Z,1.83
2019-05-09T07:44:19.149Z,1.67
2019-05-09T07:46:54.202Z,1.67
2019-05-09T07:49:22.991Z,2.33
2019-05-09T07:51:51.646Z,2.20
2019-05-09T07:54:25.418Z,1.93
2019-05-09T07:56:49.206Z,1.50
2019-05-09T07:59:18.217Z,1.70
2019-05-09T08:01:48.474Z,1.93
2019-05-09T08:04:15.066Z,1.80
2019-05-09T08:06:43.826Z,2.07
2019-05-09T08:09:12.676Z,2.00
2019-05-09T08:11:41.941Z,1.80
2019-05-09T08:14:11.001Z,2.30
2019-05-09T08:16:39.527Z,2.30
2019-05-09T08:19:08.002Z,2.03
2019-05-09T08:21:38.379Z,1.97
2019-05-09T08:24:08.061Z,2.43
2019-05-09T08:26:34.639Z,1.63
2019-05-09T08:29:03.102Z,2.70
2019-05-09T08:31:31.583Z,2.67
2019-05-09T08:34:00.041Z,2.60
2019-05-09T08:36:28.742Z,1.90
2019-05-09T08:38:58.588Z,2.13
2019-05-09T08:41:28.746Z,2.17
2019-05-09T08:43:54.424Z,2.70
2019-05-09T08:46:22.894Z,2.33
2019-05-09T08:48:51.665Z,2.27
2019-05-09T08:51:37.564Z,2.23
2019-05-09T08:53:57.796Z,2.93
2019-05-09T08:56:25.386Z,2.30
2019-05-09T08:58:57.942Z,3.40
2019-05-09T09:01:29.610Z,4.73
2019-05-09T09:03:52.184Z,2.30
2019-05-09T09:06:20.886Z,4.57
2019-05-09T09:08:49.381Z,2.50
2019-05-09T09:11:18.894Z,2.13
2019-05-09T09:13:48.270Z,2.10
2019-05-09T09:16:21.453Z,2.07
2019-05-09T09:18:44.420Z,4.17
2019-05-09T09:21:13.139Z,4.60
2019-05-09T09:23:46.814Z,4.60
2019-05-09T09:26:10.187Z,5.23
2019-05-09T09:28:39.033Z,4.60
2019-05-09T09:31:08.309Z,6.40
2019-05-09T09:33:37.626Z,4.53
2019-05-09T09:36:05.232Z,4.27
2019-05-09T09:38:33.958Z,2.53
2019-05-09T09:41:02.446Z,2.03
2019-05-09T09:43:31.566Z,3.23
2019-05-09T09:46:10.297Z,2.20
2019-05-09T09:48:29.605Z,2.37
2019-05-09T09:50:58.375Z,2.80
2019-05-09T09:53:27.831Z,5.90
2019-05-09T09:55:57.997Z,6.60
2019-05-09T09:58:27.274Z,2.83
2019-05-09T10:01:03.316Z,3.57
2019-05-09T10:03:30.500Z,2.93
2019-05-09T10:05:58.814Z,3.33
2019-05-09T10:08:27.655Z,4.07
2019-05-09T10:10:58.942Z,4.20
2019-05-09T10:13:28.393Z,5.20
2019-05-09T10:15:58.889Z,7.77
2019-05-09T10:18:38.170Z,9.30
2019-05-09T10:21:13.193Z,4.87
2019-05-09T10:23:41.944Z,6.13
2019-05-09T10:26:11.097Z,6.03
2019-05-09T10:28:39.367Z,5.50
2019-05-09T10:31:08.687Z,4.27
2019-05-09T10:33:37.657Z,6.73
2019-05-09T10:36:08.566Z,4.97
2019-05-09T10:38:35.393Z,6.97
2019-05-09T10:41:04.258Z,5.47
2019-05-09T10:44:08.851Z,7.83
2019-05-09T10:46:56.829Z,6.40
2019-05-09T10:49:17.504Z,6.47
2019-05-09T10:51:48.533Z,4.17
2019-05-09T10:54:15.441Z,4.50
2019-05-09T10:56:44.573Z,4.70
2019-05-09T10:59:13.675Z,4.60
2019-05-09T11:01:42.457Z,5.10
2019-05-09T11:04:11.318Z,4.47
2019-05-09T11:06:40.153Z,4.30
2019-05-09T11:09:09.748Z,5.10
2019-05-09T11:11:38.569Z,6.10
2019-05-09T11:14:08.551Z,5.50
2019-05-09T11:16:44.852Z,5.30
2019-05-09T11:19:07.747Z,5.00
2019-05-09T11:21:33.549Z,4.40
2019-05-09T11:24:02.658Z,4.97
2019-05-09T11:26:31.149Z,4.37
2019-05-09T11:28:59.655Z,4.13
2019-05-09T11:31:29.494Z,3.90
2019-05-09T11:33:57.892Z,3.97
2019-05-09T11:36:26.282Z,4.03
2019-05-09T11:38:56.572Z,3.73
2019-05-09T11:41:23.609Z,3.60
2019-05-09T11:43:52.094Z,3.27
2019-05-09T11:46:20.562Z,3.43
2019-05-09T11:48:49.711Z,4.00
2019-05-09T11:51:22.630Z,4.00
2019-05-09T11:53:48.700Z,4.03
2019-05-09T11:56:18.049Z,4.27
2019-05-09T11:58:45.251Z,3.87
2019-05-09T12:01:13.846Z,3.50
2019-05-09T12:03:42.450Z,3.57
2019-05-09T12:06:11.190Z,4.00
2019-05-09T12:08:39.681Z,3.73
2019-05-09T12:11:08.649Z,3.97
2019-05-09T12:13:38.013Z,3.77
2019-05-09T12:16:06.231Z,3.80
2019-05-09T12:18:34.994Z,3.43
2019-05-09T12:21:04.091Z,4.43
2019-05-09T12:23:32.605Z,6.13
2019-05-09T12:26:01.118Z,4.57
2019-05-09T12:28:30.227Z,4.90
2019-05-09T12:30:59.335Z,5.40
2019-05-09T12:33:31.085Z,5.00
2019-05-09T12:35:59.209Z,4.23
2019-05-09T12:38:27.765Z,3.33
2019-05-09T12:40:54.432Z,3.00
2019-05-09T12:43:22.900Z,3.67
2019-05-09T12:45:51.639Z,4.77
2019-05-09T12:48:20.160Z,4.37
2019-05-09T12:50:49.242Z,3.73
2019-05-09T12:53:18.908Z,4.40
2019-05-09T12:55:47.600Z,4.80
2019-05-09T12:58:21.242Z,4.03
2019-05-09T13:00:51.941Z,3.27
2019-05-09T13:03:18.619Z,2.67
2019-05-09T13:05:47.533Z,3.90
2019-05-09T13:08:17.749Z,3.30
2019-05-09T13:10:44.779Z,4.67
2019-05-09T13:13:14.110Z,4.77
2019-05-09T13:15:48.978Z,4.37
2019-05-09T13:18:24.995Z,5.53
2019-05-09T13:20:44.626Z,5.40
2019-05-09T13:23:13.123Z,4.20
2019-05-09T13:25:41.864Z,4.93
2019-05-09T13:28:10.800Z,3.43
2019-05-09T13:30:39.073Z,3.23
2019-05-09T13:33:10.707Z,4.43
2019-05-09T13:35:39.267Z,4.73
2019-05-09T13:38:08.499Z,2.60
2019-05-09T13:40:34.247Z,3.27
2019-05-09T13:43:03.544Z,3.63
2019-05-09T13:45:32.478Z,2.40
2019-05-09T13:48:01.609Z,3.70
2019-05-09T13:50:30.263Z,3.90
2019-05-09T13:52:59.010Z,3.53
2019-05-09T13:55:28.145Z,2.70
2019-05-09T13:57:59.292Z,2.30
2019-05-09T14:00:28.462Z,2.63
2019-05-09T14:02:55.207Z,2.80
2019-05-09T14:05:23.882Z,2.10
2019-05-09T14:07:55.081Z,2.53
2019-05-09T14:10:21.126Z,2.30
2019-05-09T14:13:05.732Z,3.20
2019-05-09T14:15:19.125Z,2.67
2019-05-09T14:17:53.111Z,3.10
2019-05-09T14:20:18.005Z,2.80
2019-05-09T14:22:45.447Z,3.20
2019-05-09T14:25:13.947Z,2.87
2019-05-09T14:27:48.758Z,2.50
2019-05-09T14:30:11.888Z,2.53
2019-05-09T14:32:40.560Z,3.73
2019-05-09T14:35:09.306Z,2.50
2019-05-09T14:37:38.896Z,3.90
2019-05-09T14:40:10.100Z,2.10
2019-05-09T14:42:35.605Z,3.27
2019-05-09T14:45:04.605Z,4.03
2019-05-09T14:47:33.450Z,3.20
2019-05-09T14:50:02.169Z,2.80
2019-05-09T14:52:30.935Z,3.20
2019-05-09T14:54:59.463Z,3.00
2019-05-09T14:57:28.645Z,3.13
2019-05-09T14:59:58.410Z,4.30
2019-05-09T15:02:25.447Z,3.47
2019-05-09T15:04:53.927Z,3.27
2019-05-09T15:07:22.416Z,2.40
2019-05-09T15:09:51.165Z,2.57
2019-05-09T15:12:20.247Z,2.67
2019-05-09T15:14:48.726Z,2.70
2019-05-09T15:17:18.476Z,2.60
2019-05-09T15:19:59.419Z,2.77
2019-05-09T15:22:14.887Z,3.07
2019-05-09T15:24:43.403Z,2.90
2019-05-09T15:27:11.870Z,2.30
2019-05-09T15:29:40.951Z,3.20
2019-05-09T15:32:12.160Z,3.10
2019-05-09T15:34:38.616Z,2.37
2019-05-09T15:37:08.829Z,2.80
2019-05-09T15:39:38.092Z,2.80
2019-05-09T15:42:07.270Z,2.50
2019-05-09T15:44:34.946Z,2.80
2019-05-09T15:47:08.291Z,2.60
2019-05-09T15:49:38.540Z,2.90
2019-05-09T15:52:07.390Z,3.33
2019-05-09T15:54:34.226Z,2.63
2019-05-09T15:57:02.996Z,3.20
2019-05-09T15:59:31.546Z,2.87
2019-05-09T16:02:00.044Z,2.43
2019-05-09T16:04:29.053Z,3.20
2019-05-09T16:06:58.367Z,2.53
2019-05-09T16:09:28.615Z,3.00
2019-05-09T16:11:55.657Z,2.73
2019-05-09T16:14:24.502Z,3.30
2019-05-09T16:16:53.001Z,3.40
2019-05-09T16:19:21.501Z,2.90
2019-05-09T16:21:50.204Z,3.07
2019-05-09T16:24:19.140Z,2.83
2019-05-09T16:26:48.762Z,3.20
2019-05-09T16:29:17.822Z,3.17
2019-05-09T16:31:47.898Z,3.00
2019-05-09T16:34:14.369Z,3.17
2019-05-09T16:36:42.865Z,3.83
2019-05-09T16:39:11.994Z,4.03
2019-05-09T16:41:40.753Z,3.60
2019-05-09T16:44:09.535Z,3.00
2019-05-09T16:46:38.793Z,3.53
2019-05-09T16:49:11.585Z,3.23
2019-05-09T16:51:37.874Z,3.23
2019-05-09T16:54:07.258Z,3.30
2019-05-09T16:56:34.020Z,3.17
2019-05-09T16:59:02.290Z,3.50
2019-05-09T17:01:31.071Z,2.33
2019-05-09T17:03:59.568Z,2.43
2019-05-09T17:06:28.226Z,3.17
2019-05-09T17:08:58.417Z,3.70
2019-05-09T17:11:27.821Z,3.30
2019-05-09T17:13:54.706Z,3.73
2019-05-09T17:16:22.961Z,3.37
2019-05-09T17:18:52.062Z,3.67
2019-05-09T17:21:28.098Z,4.03
2019-05-09T17:23:55.419Z,3.23
2019-05-09T17:26:23.907Z,3.57
2019-05-09T17:28:52.667Z,3.37
2019-05-09T17:31:21.505Z,3.47
2019-05-09T17:33:49.982Z,3.67
2019-05-09T17:36:18.828Z,4.17
2019-05-09T17:38:47.809Z,3.30
2019-05-09T17:41:17.715Z,4.10
2019-05-09T17:43:44.791Z,3.77
2019-05-09T17:46:14.034Z,3.30
2019-05-09T17:48:42.874Z,3.80
2019-05-09T17:51:11.638Z,4.50
2019-05-09T17:53:40.310Z,3.47
2019-05-09T17:56:10.892Z,4.57
2019-05-09T17:58:38.128Z,3.87
2019-05-09T18:01:07.835Z,3.60
2019-05-09T18:03:35.106Z,4.23
2019-05-09T18:06:03.874Z,4.33
2019-05-09T18:08:32.991Z,2.37
2019-05-09T18:11:01.482Z,3.97
2019-05-09T18:13:31.843Z,4.50
2019-05-09T18:15:59.401Z,3.33
2019-05-09T18:18:28.549Z,4.30
2019-05-09T18:20:58.029Z,2.80
2019-05-09T18:23:28.163Z,2.40
2019-05-09T18:25:54.765Z,2.43
2019-05-09T18:28:23.693Z,2.23
2019-05-09T18:30:52.264Z,4.23
2019-05-09T18:33:28.713Z,3.13
2019-05-09T18:35:57.664Z,3.27
2019-05-09T18:38:28.190Z,3.13
2019-05-09T18:40:57.980Z,3.93
2019-05-09T18:43:24.312Z,3.53
2019-05-09T18:45:53.428Z,7.67
2019-05-09T18:48:22.293Z,9.40
2019-05-09T18:50:50.790Z,4.77
2019-05-09T18:53:19.897Z,4.40
2019-05-09T18:55:48.631Z,4.20
2019-05-09T18:58:17.387Z,4.30
2019-05-09T19:00:45.663Z,4.17
2019-05-09T19:03:14.309Z,1.80
2019-05-09T19:05:43.538Z,4.40
2019-05-09T19:08:12.150Z,4.47
2019-05-09T19:10:40.919Z,4.03
2019-05-09T19:13:09.530Z,3.47
2019-05-09T19:15:45.391Z,4.23
2019-05-09T19:18:22.430Z,4.07
2019-05-09T19:20:55.710Z,4.97
2019-05-09T19:23:24.397Z,3.43
2019-05-09T19:25:53.496Z,5.17
2019-05-09T19:28:24.178Z,6.17
2019-05-09T19:30:51.414Z,4.73
2019-05-09T19:33:20.189Z,4.00
2019-05-09T19:35:49.298Z,4.53
2019-05-09T19:38:17.962Z,4.77
2019-05-09T19:40:47.036Z,5.13
2019-05-09T19:43:15.460Z,4.50
2019-05-09T19:45:44.019Z,4.63
2019-05-09T19:48:12.274Z,3.40
2019-05-09T19:50:40.884Z,5.37
2019-05-09T19:53:10.317Z,4.60
2019-05-09T19:55:38.221Z,3.33
2019-05-09T19:58:07.050Z,2.80
2019-05-09T20:00:35.799Z,3.97
2019-05-09T20:03:04.286Z,3.57
2019-05-09T20:05:32.535Z,3.57
2019-05-09T20:08:01.390Z,9.43
2019-05-09T20:10:35.534Z,3.60
2019-05-09T20:13:13.403Z,2.70
2019-05-09T20:15:42.199Z,2.80
2019-05-09T20:18:10.690Z,3.93
2019-05-09T20:20:39.810Z,2.37
2019-05-09T20:23:08.898Z,2.73
2019-05-09T20:25:37.894Z,3.83
2019-05-09T20:28:06.174Z,4.17
2019-05-09T20:30:34.437Z,2.63
2019-05-09T20:33:03.260Z,3.37
2019-05-09T20:35:31.727Z,2.73
2019-05-09T20:38:00.384Z,3.77
2019-05-09T20:40:29.131Z,2.80
2019-05-09T20:42:58.226Z,3.33
2019-05-09T20:45:27.025Z,3.40
2019-05-09T20:47:55.781Z,3.10
2019-05-09T20:50:24.281Z,4.10
2019-05-09T20:53:08.151Z,4.63
2019-05-09T20:55:21.754Z,5.35
